Terminal Aerodrome Forecast
Issued by NWS Pittsburgh, PA

Current Version | Previous Version | Graphics & Text | Print | Product List | Glossary On
Versions: 1 2 3 4 5 6 7 8 9 10 11 12 13 14 15 16 17 18 19 20 21 22 23 24 25 26 27 28 29
000
FTUS41 KPBZ 171100 AAC
TAFPIT
TAF AMD
KPIT 171102Z 1711/1812 22006KT P6SM -DZ FEW011 BKN015 OVC060
     FM171500 21010G20KT P6SM BKN035
     FM172200 23007KT P6SM OVC050=

USA.gov is the U.S. government's official web portal to all federal, state and local government web resources and services.